sensor_id;sensor_type;location;lat;lon;timestamp;temperature;humidity
54260;DHT22;40172;53.022;7.012;2023-04-15T00:00:21;5.40;99.90
54260;DHT22;40172;53.022;7.012;2023-04-15T00:02:46;5.40;99.90
54260;DHT22;40172;53.022;7.012;2023-04-15T00:05:12;5.30;99.90
54260;DHT22;40172;53.022;7.012;2023-04-15T00:07:38;5.30;99.90
54260;DHT22;40172;53.022;7.012;2023-04-15T00:10:05;5.30;99.90
54260;DHT22;40172;53.022;7.012;2023-04-15T00:12:30;5.30;99.90
54260;DHT22;40172;53.022;7.012;2023-04-15T00:14:56;5.20;99.90
54260;DHT22;40172;53.022;7.012;2023-04-15T00:17:23;5.20;99.90
54260;DHT22;40172;53.022;7.012;2023-04-15T00:19:49;5.20;99.90
54260;DHT22;40172;53.022;7.012;2023-04-15T00:22:14;5.10;99.90
54260;DHT22;40172;53.022;7.012;2023-04-15T00:24:40;5.10;99.90
54260;DHT22;40172;53.022;7.012;2023-04-15T00:27:07;5.10;99.90
54260;DHT22;40172;53.022;7.012;2023-04-15T00:29:33;5.00;99.90
54260;DHT22;40172;53.022;7.012;2023-04-15T00:31:59;5.00;99.90
54260;DHT22;40172;53.022;7.012;2023-04-15T00:34:25;4.90;99.90
54260;DHT22;40172;53.022;7.012;2023-04-15T00:36:51;4.90;99.90
54260;DHT22;40172;53.022;7.012;2023-04-15T00:39:17;4.90;99.90
54260;DHT22;40172;53.022;7.012;2023-04-15T00:41:43;4.90;99.90
54260;DHT22;40172;53.022;7.012;2023-04-15T00:44:08;4.90;99.90
54260;DHT22;40172;53.022;7.012;2023-04-15T00:46:36;4.90;99.90
54260;DHT22;40172;53.022;7.012;2023-04-15T00:49:06;4.90;99.90
54260;DHT22;40172;53.022;7.012;2023-04-15T00:51:32;4.90;99.90
54260;DHT22;40172;53.022;7.012;2023-04-15T00:54:01;4.90;99.90
54260;DHT22;40172;53.022;7.012;2023-04-15T00:56:27;4.80;99.90
54260;DHT22;40172;53.022;7.012;2023-04-15T00:58:53;4.90;99.90
54260;DHT22;40172;53.022;7.012;2023-04-15T01:01:25;4.90;99.90
54260;DHT22;40172;53.022;7.012;2023-04-15T01:03:51;4.90;99.90
54260;DHT22;40172;53.022;7.012;2023-04-15T01:06:17;4.90;99.90
54260;DHT22;40172;53.022;7.012;2023-04-15T01:08:43;4.90;99.90
54260;DHT22;40172;53.022;7.012;2023-04-15T01:11:10;4.90;99.90
54260;DHT22;40172;53.022;7.012;2023-04-15T01:13:37;4.90;99.90
54260;DHT22;40172;53.022;7.012;2023-04-15T01:16:02;4.90;99.90
54260;DHT22;40172;53.022;7.012;2023-04-15T01:18:29;4.80;99.90
54260;DHT22;40172;53.022;7.012;2023-04-15T01:20:54;4.80;99.90
54260;DHT22;40172;53.022;7.012;2023-04-15T01:23:21;4.80;99.90
54260;DHT22;40172;53.022;7.012;2023-04-15T01:25:48;4.80;99.90
54260;DHT22;40172;53.022;7.012;2023-04-15T01:28:14;4.70;99.90
54260;DHT22;40172;53.022;7.012;2023-04-15T01:30:40;4.70;99.90
54260;DHT22;40172;53.022;7.012;2023-04-15T01:33:06;4.60;99.90
54260;DHT22;40172;53.022;7.012;2023-04-15T01:35:32;4.60;99.90
54260;DHT22;40172;53.022;7.012;2023-04-15T01:38:08;4.60;99.90
54260;DHT22;40172;53.022;7.012;2023-04-15T01:40:34;4.50;99.90
54260;DHT22;40172;53.022;7.012;2023-04-15T01:43:00;4.50;99.90
54260;DHT22;40172;53.022;7.012;2023-04-15T01:45:27;4.50;99.90
54260;DHT22;40172;53.022;7.012;2023-04-15T01:47:52;4.40;99.90
54260;DHT22;40172;53.022;7.012;2023-04-15T01:50:18;4.40;99.90
54260;DHT22;40172;53.022;7.012;2023-04-15T01:52:45;4.30;99.90
54260;DHT22;40172;53.022;7.012;2023-04-15T01:55:11;4.30;99.90
54260;DHT22;40172;53.022;7.012;2023-04-15T01:57:37;4.40;99.90
54260;DHT22;40172;53.022;7.012;2023-04-15T02:00:03;4.30;99.90
54260;DHT22;40172;53.022;7.012;2023-04-15T02:02:29;4.20;99.90
54260;DHT22;40172;53.022;7.012;2023-04-15T02:04:55;4.20;99.90
54260;DHT22;40172;53.022;7.012;2023-04-15T02:07:20;4.10;99.90
54260;DHT22;40172;53.022;7.012;2023-04-15T02:09:46;4.10;99.90
54260;DHT22;40172;53.022;7.012;2023-04-15T02:12:12;4.00;99.90
54260;DHT22;40172;53.022;7.012;2023-04-15T02:14:38;4.00;99.90
54260;DHT22;40172;53.022;7.012;2023-04-15T02:17:03;3.90;99.90
54260;DHT22;40172;53.022;7.012;2023-04-15T02:19:33;3.90;99.90
54260;DHT22;40172;53.022;7.012;2023-04-15T02:21:59;3.90;99.90
54260;DHT22;40172;53.022;7.012;2023-04-15T02:24:27;3.90;99.90
54260;DHT22;40172;53.022;7.012;2023-04-15T02:26:52;3.90;99.90
54260;DHT22;40172;53.022;7.012;2023-04-15T02:29:19;3.80;99.90
54260;DHT22;40172;53.022;7.012;2023-04-15T02:31:45;3.80;99.90
54260;DHT22;40172;53.022;7.012;2023-04-15T02:34:12;3.80;99.90
54260;DHT22;40172;53.022;7.012;2023-04-15T02:36:38;3.80;99.90
54260;DHT22;40172;53.022;7.012;2023-04-15T02:39:05;3.70;99.90
54260;DHT22;40172;53.022;7.012;2023-04-15T02:41:31;3.70;99.90
54260;DHT22;40172;53.022;7.012;2023-04-15T02:43:56;3.70;99.90
54260;DHT22;40172;53.022;7.012;2023-04-15T02:46:22;3.70;99.90
54260;DHT22;40172;53.022;7.012;2023-04-15T02:48:50;3.70;99.90
54260;DHT22;40172;53.022;7.012;2023-04-15T02:51:19;3.70;99.90
54260;DHT22;40172;53.022;7.012;2023-04-15T02:53:46;3.70;99.90
54260;DHT22;40172;53.022;7.012;2023-04-15T02:56:12;3.70;99.90
54260;DHT22;40172;53.022;7.012;2023-04-15T02:58:39;3.70;99.90
54260;DHT22;40172;53.022;7.012;2023-04-15T03:01:05;3.70;99.90
54260;DHT22;40172;53.022;7.012;2023-04-15T03:03:33;3.80;99.90
54260;DHT22;40172;53.022;7.012;2023-04-15T03:05:58;3.80;99.90
54260;DHT22;40172;53.022;7.012;2023-04-15T03:08:24;3.80;99.90
54260;DHT22;40172;53.022;7.012;2023-04-15T03:10:50;3.80;99.90
54260;DHT22;40172;53.022;7.012;2023-04-15T03:13:17;3.80;99.90
54260;DHT22;40172;53.022;7.012;2023-04-15T03:15:42;3.80;99.90
54260;DHT22;40172;53.022;7.012;2023-04-15T03:18:08;3.80;99.90
54260;DHT22;40172;53.022;7.012;2023-04-15T03:20:33;3.80;99.90
54260;DHT22;40172;53.022;7.012;2023-04-15T03:23:00;3.80;99.90
54260;DHT22;40172;53.022;7.012;2023-04-15T03:25:25;3.70;99.90
54260;DHT22;40172;53.022;7.012;2023-04-15T03:27:51;3.70;99.90
54260;DHT22;40172;53.022;7.012;2023-04-15T03:30:17;3.70;99.90
54260;DHT22;40172;53.022;7.012;2023-04-15T03:32:42;3.60;99.90
54260;DHT22;40172;53.022;7.012;2023-04-15T03:35:08;3.60;99.90
54260;DHT22;40172;53.022;7.012;2023-04-15T03:37:34;3.60;99.90
54260;DHT22;40172;53.022;7.012;2023-04-15T03:40:00;3.40;99.90
54260;DHT22;40172;53.022;7.012;2023-04-15T03:42:25;3.30;99.90
54260;DHT22;40172;53.022;7.012;2023-04-15T03:44:51;3.20;99.90
54260;DHT22;40172;53.022;7.012;2023-04-15T03:47:17;3.10;99.90
54260;DHT22;40172;53.022;7.012;2023-04-15T03:49:42;3.00;99.90
54260;DHT22;40172;53.022;7.012;2023-04-15T03:52:08;2.90;99.90
54260;DHT22;40172;53.022;7.012;2023-04-15T03:54:33;2.80;99.90
54260;DHT22;40172;53.022;7.012;2023-04-15T03:56:59;2.80;99.90
54260;DHT22;40172;53.022;7.012;2023-04-15T03:59:25;2.80;99.90
54260;DHT22;40172;53.022;7.012;2023-04-15T04:01:51;2.90;99.90
54260;DHT22;40172;53.022;7.012;2023-04-15T04:04:16;2.90;99.90
54260;DHT22;40172;53.022;7.012;2023-04-15T04:06:42;2.90;99.90
54260;DHT22;40172;53.022;7.012;2023-04-15T04:09:08;2.90;99.90
54260;DHT22;40172;53.022;7.012;2023-04-15T04:11:33;2.90;99.90
54260;DHT22;40172;53.022;7.012;2023-04-15T04:13:59;2.90;99.90
54260;DHT22;40172;53.022;7.012;2023-04-15T04:16:25;3.00;99.90
54260;DHT22;40172;53.022;7.012;2023-04-15T04:18:50;3.00;99.90
54260;DHT22;40172;53.022;7.012;2023-04-15T04:21:16;3.00;99.90
54260;DHT22;40172;53.022;7.012;2023-04-15T04:23:42;3.10;99.90
54260;DHT22;40172;53.022;7.012;2023-04-15T04:26:07;3.10;99.90
54260;DHT22;40172;53.022;7.012;2023-04-15T04:28:33;3.10;99.90
54260;DHT22;40172;53.022;7.012;2023-04-15T04:31:00;3.20;99.90
54260;DHT22;40172;53.022;7.012;2023-04-15T04:33:26;3.20;99.90
54260;DHT22;40172;53.022;7.012;2023-04-15T04:35:51;3.20;99.90
54260;DHT22;40172;53.022;7.012;2023-04-15T04:38:17;3.10;99.90
54260;DHT22;40172;53.022;7.012;2023-04-15T04:40:43;3.10;99.90
54260;DHT22;40172;53.022;7.012;2023-04-15T04:43:08;3.00;99.90
54260;DHT22;40172;53.022;7.012;2023-04-15T04:45:34;3.20;99.90
54260;DHT22;40172;53.022;7.012;2023-04-15T04:48:00;3.00;99.90
54260;DHT22;40172;53.022;7.012;2023-04-15T04:50:26;2.90;99.90
54260;DHT22;40172;53.022;7.012;2023-04-15T04:52:51;2.90;99.90
54260;DHT22;40172;53.022;7.012;2023-04-15T04:55:17;2.90;99.90
54260;DHT22;40172;53.022;7.012;2023-04-15T04:57:43;2.90;99.90
54260;DHT22;40172;53.022;7.012;2023-04-15T05:00:09;3.00;99.90
54260;DHT22;40172;53.022;7.012;2023-04-15T05:02:34;3.00;99.90
54260;DHT22;40172;53.022;7.012;2023-04-15T05:05:00;3.00;99.90
54260;DHT22;40172;53.022;7.012;2023-04-15T05:07:26;2.90;99.90
54260;DHT22;40172;53.022;7.012;2023-04-15T05:09:52;2.90;99.90
54260;DHT22;40172;53.022;7.012;2023-04-15T05:12:17;3.00;99.90
54260;DHT22;40172;53.022;7.012;2023-04-15T05:14:43;2.90;99.90
54260;DHT22;40172;53.022;7.012;2023-04-15T05:17:09;2.90;99.90
54260;DHT22;40172;53.022;7.012;2023-04-15T05:19:35;3.00;99.90
54260;DHT22;40172;53.022;7.012;2023-04-15T05:22:01;3.00;99.90
54260;DHT22;40172;53.022;7.012;2023-04-15T05:24:26;3.00;99.90
54260;DHT22;40172;53.022;7.012;2023-04-15T05:26:52;3.00;99.90
54260;DHT22;40172;53.022;7.012;2023-04-15T05:29:17;2.90;99.90
54260;DHT22;40172;53.022;7.012;2023-04-15T05:31:43;3.10;99.90
54260;DHT22;40172;53.022;7.012;2023-04-15T05:34:09;3.10;99.90
54260;DHT22;40172;53.022;7.012;2023-04-15T05:36:36;3.10;99.90
54260;DHT22;40172;53.022;7.012;2023-04-15T05:39:02;3.20;99.90
54260;DHT22;40172;53.022;7.012;2023-04-15T05:41:28;3.60;99.90
54260;DHT22;40172;53.022;7.012;2023-04-15T05:43:54;3.40;99.90
54260;DHT22;40172;53.022;7.012;2023-04-15T05:46:20;3.40;99.90
54260;DHT22;40172;53.022;7.012;2023-04-15T05:48:45;3.60;99.90
54260;DHT22;40172;53.022;7.012;2023-04-15T05:51:11;3.80;99.90
54260;DHT22;40172;53.022;7.012;2023-04-15T05:53:36;4.00;99.90
54260;DHT22;40172;53.022;7.012;2023-04-15T05:56:02;4.20;99.90
54260;DHT22;40172;53.022;7.012;2023-04-15T05:58:28;4.30;99.90
54260;DHT22;40172;53.022;7.012;2023-04-15T06:00:53;4.50;99.90
54260;DHT22;40172;53.022;7.012;2023-04-15T06:03:19;4.70;99.90
54260;DHT22;40172;53.022;7.012;2023-04-15T06:05:44;4.70;99.90
54260;DHT22;40172;53.022;7.012;2023-04-15T06:08:10;5.00;99.90
54260;DHT22;40172;53.022;7.012;2023-04-15T06:10:36;5.10;99.90
54260;DHT22;40172;53.022;7.012;2023-04-15T06:13:02;5.20;99.90
54260;DHT22;40172;53.022;7.012;2023-04-15T06:15:28;5.30;99.90
54260;DHT22;40172;53.022;7.012;2023-04-15T06:17:54;5.50;99.90
54260;DHT22;40172;53.022;7.012;2023-04-15T06:20:20;5.70;99.90
54260;DHT22;40172;53.022;7.012;2023-04-15T06:22:46;5.80;99.90
54260;DHT22;40172;53.022;7.012;2023-04-15T06:25:11;5.90;99.90
54260;DHT22;40172;53.022;7.012;2023-04-15T06:27:37;6.00;99.90
54260;DHT22;40172;53.022;7.012;2023-04-15T06:30:03;6.20;99.90
54260;DHT22;40172;53.022;7.012;2023-04-15T06:32:29;6.30;99.90
54260;DHT22;40172;53.022;7.012;2023-04-15T06:34:56;6.40;99.90
54260;DHT22;40172;53.022;7.012;2023-04-15T06:37:22;6.50;99.90
54260;DHT22;40172;53.022;7.012;2023-04-15T06:39:48;6.60;99.90
54260;DHT22;40172;53.022;7.012;2023-04-15T06:42:13;6.70;99.90
54260;DHT22;40172;53.022;7.012;2023-04-15T06:44:39;6.80;99.90
54260;DHT22;40172;53.022;7.012;2023-04-15T06:47:04;6.90;99.90
54260;DHT22;40172;53.022;7.012;2023-04-15T06:49:30;7.00;99.90
54260;DHT22;40172;53.022;7.012;2023-04-15T06:51:56;7.00;99.90
54260;DHT22;40172;53.022;7.012;2023-04-15T06:54:22;7.10;99.90
54260;DHT22;40172;53.022;7.012;2023-04-15T06:56:47;7.20;99.90
54260;DHT22;40172;53.022;7.012;2023-04-15T06:59:13;7.20;99.90
54260;DHT22;40172;53.022;7.012;2023-04-15T07:01:42;7.30;99.90
54260;DHT22;40172;53.022;7.012;2023-04-15T07:04:07;7.40;99.90
54260;DHT22;40172;53.022;7.012;2023-04-15T07:06:33;7.40;99.90
54260;DHT22;40172;53.022;7.012;2023-04-15T07:09:00;7.50;99.90
54260;DHT22;40172;53.022;7.012;2023-04-15T07:11:27;7.50;99.90
54260;DHT22;40172;53.022;7.012;2023-04-15T07:13:53;7.60;99.90
54260;DHT22;40172;53.022;7.012;2023-04-15T07:16:19;7.70;99.90
54260;DHT22;40172;53.022;7.012;2023-04-15T07:18:44;7.80;99.90
54260;DHT22;40172;53.022;7.012;2023-04-15T07:21:10;7.90;99.90
54260;DHT22;40172;53.022;7.012;2023-04-15T07:23:36;7.90;99.90
54260;DHT22;40172;53.022;7.012;2023-04-15T07:26:02;8.00;99.90
54260;DHT22;40172;53.022;7.012;2023-04-15T07:28:27;8.10;99.90
54260;DHT22;40172;53.022;7.012;2023-04-15T07:30:54;8.20;99.90
54260;DHT22;40172;53.022;7.012;2023-04-15T07:33:20;8.20;99.90
54260;DHT22;40172;53.022;7.012;2023-04-15T07:35:45;8.30;99.90
54260;DHT22;40172;53.022;7.012;2023-04-15T07:38:11;8.40;99.90
54260;DHT22;40172;53.022;7.012;2023-04-15T07:40:38;8.40;99.90
54260;DHT22;40172;53.022;7.012;2023-04-15T07:43:04;8.50;99.90
54260;DHT22;40172;53.022;7.012;2023-04-15T07:45:30;8.50;99.90
54260;DHT22;40172;53.022;7.012;2023-04-15T07:47:56;8.50;99.90
54260;DHT22;40172;53.022;7.012;2023-04-15T07:50:22;8.50;99.90
54260;DHT22;40172;53.022;7.012;2023-04-15T07:52:49;8.50;99.90
54260;DHT22;40172;53.022;7.012;2023-04-15T07:55:16;8.50;99.90
54260;DHT22;40172;53.022;7.012;2023-04-15T07:57:43;8.60;99.90
54260;DHT22;40172;53.022;7.012;2023-04-15T08:00:09;8.60;99.90
54260;DHT22;40172;53.022;7.012;2023-04-15T08:02:35;8.60;99.90
54260;DHT22;40172;53.022;7.012;2023-04-15T08:05:02;8.60;99.90
54260;DHT22;40172;53.022;7.012;2023-04-15T08:07:28;8.70;99.90
54260;DHT22;40172;53.022;7.012;2023-04-15T08:09:54;8.70;99.90
54260;DHT22;40172;53.022;7.012;2023-04-15T08:12:20;8.70;99.90
54260;DHT22;40172;53.022;7.012;2023-04-15T08:14:46;8.80;99.90
54260;DHT22;40172;53.022;7.012;2023-04-15T08:17:11;8.70;99.90
54260;DHT22;40172;53.022;7.012;2023-04-15T08:19:37;8.70;99.90
54260;DHT22;40172;53.022;7.012;2023-04-15T08:22:03;8.60;99.90
54260;DHT22;40172;53.022;7.012;2023-04-15T08:24:30;8.50;99.90
54260;DHT22;40172;53.022;7.012;2023-04-15T08:26:56;8.50;99.90
54260;DHT22;40172;53.022;7.012;2023-04-15T08:29:22;8.50;99.90
54260;DHT22;40172;53.022;7.012;2023-04-15T08:31:48;8.50;99.90
54260;DHT22;40172;53.022;7.012;2023-04-15T08:34:14;8.50;99.90
54260;DHT22;40172;53.022;7.012;2023-04-15T08:36:40;8.50;99.90
54260;DHT22;40172;53.022;7.012;2023-04-15T08:39:06;8.60;99.90
54260;DHT22;40172;53.022;7.012;2023-04-15T08:41:55;8.70;99.90
54260;DHT22;40172;53.022;7.012;2023-04-15T08:44:23;8.90;99.90
54260;DHT22;40172;53.022;7.012;2023-04-15T08:46:51;9.00;99.90
54260;DHT22;40172;53.022;7.012;2023-04-15T08:49:18;9.10;99.90
54260;DHT22;40172;53.022;7.012;2023-04-15T08:51:46;9.10;99.90
54260;DHT22;40172;53.022;7.012;2023-04-15T08:54:12;9.00;99.90
54260;DHT22;40172;53.022;7.012;2023-04-15T08:56:38;8.90;99.90
54260;DHT22;40172;53.022;7.012;2023-04-15T08:59:04;8.80;99.90
54260;DHT22;40172;53.022;7.012;2023-04-15T09:01:31;8.80;99.90
54260;DHT22;40172;53.022;7.012;2023-04-15T09:03:58;8.80;99.90
54260;DHT22;40172;53.022;7.012;2023-04-15T09:06:24;8.90;99.90
54260;DHT22;40172;53.022;7.012;2023-04-15T09:08:50;8.90;99.90
54260;DHT22;40172;53.022;7.012;2023-04-15T09:11:17;9.00;99.90
54260;DHT22;40172;53.022;7.012;2023-04-15T09:13:44;9.20;99.90
54260;DHT22;40172;53.022;7.012;2023-04-15T09:16:09;9.00;99.90
54260;DHT22;40172;53.022;7.012;2023-04-15T09:18:37;9.00;99.90
54260;DHT22;40172;53.022;7.012;2023-04-15T09:21:12;9.00;99.90
54260;DHT22;40172;53.022;7.012;2023-04-15T09:23:40;9.00;99.90
54260;DHT22;40172;53.022;7.012;2023-04-15T09:26:06;8.90;99.90
54260;DHT22;40172;53.022;7.012;2023-04-15T09:28:32;8.90;99.90
54260;DHT22;40172;53.022;7.012;2023-04-15T09:31:01;8.90;99.90
54260;DHT22;40172;53.022;7.012;2023-04-15T09:33:28;9.00;99.90
54260;DHT22;40172;53.022;7.012;2023-04-15T09:36:02;9.00;99.90
54260;DHT22;40172;53.022;7.012;2023-04-15T09:38:30;9.00;99.90
54260;DHT22;40172;53.022;7.012;2023-04-15T09:40:56;9.00;99.90
54260;DHT22;40172;53.022;7.012;2023-04-15T09:43:37;9.00;99.90
54260;DHT22;40172;53.022;7.012;2023-04-15T09:46:03;9.00;99.90
54260;DHT22;40172;53.022;7.012;2023-04-15T09:48:29;9.00;99.90
54260;DHT22;40172;53.022;7.012;2023-04-15T09:50:59;9.10;99.90
54260;DHT22;40172;53.022;7.012;2023-04-15T09:53:26;9.20;99.90
54260;DHT22;40172;53.022;7.012;2023-04-15T09:55:57;9.20;99.90
54260;DHT22;40172;53.022;7.012;2023-04-15T09:58:23;9.20;99.90
54260;DHT22;40172;53.022;7.012;2023-04-15T10:00:51;9.10;99.90
54260;DHT22;40172;53.022;7.012;2023-04-15T10:03:22;9.10;99.90
54260;DHT22;40172;53.022;7.012;2023-04-15T10:05:49;9.10;99.90
54260;DHT22;40172;53.022;7.012;2023-04-15T10:08:19;9.10;99.90
54260;DHT22;40172;53.022;7.012;2023-04-15T10:10:47;9.30;99.90
54260;DHT22;40172;53.022;7.012;2023-04-15T10:13:33;9.10;99.90
54260;DHT22;40172;53.022;7.012;2023-04-15T10:16:06;9.00;99.90
54260;DHT22;40172;53.022;7.012;2023-04-15T10:18:34;9.00;99.90
54260;DHT22;40172;53.022;7.012;2023-04-15T10:21:00;9.00;99.90
54260;DHT22;40172;53.022;7.012;2023-04-15T10:23:26;8.90;99.90
54260;DHT22;40172;53.022;7.012;2023-04-15T10:25:53;8.90;99.90
54260;DHT22;40172;53.022;7.012;2023-04-15T10:28:19;8.90;99.90
54260;DHT22;40172;53.022;7.012;2023-04-15T10:30:45;8.90;99.90
54260;DHT22;40172;53.022;7.012;2023-04-15T10:33:13;8.80;99.90
54260;DHT22;40172;53.022;7.012;2023-04-15T10:35:41;8.80;99.90
54260;DHT22;40172;53.022;7.012;2023-04-15T10:38:34;8.80;99.90
54260;DHT22;40172;53.022;7.012;2023-04-15T10:41:16;8.90;99.90
54260;DHT22;40172;53.022;7.012;2023-04-15T10:43:59;9.00;99.90
54260;DHT22;40172;53.022;7.012;2023-04-15T10:46:39;9.00;99.90
54260;DHT22;40172;53.022;7.012;2023-04-15T10:51:37;8.90;99.90
54260;DHT22;40172;53.022;7.012;2023-04-15T10:54:15;8.90;99.90
54260;DHT22;40172;53.022;7.012;2023-04-15T10:56:42;9.00;99.90
54260;DHT22;40172;53.022;7.012;2023-04-15T10:59:08;9.00;99.90
54260;DHT22;40172;53.022;7.012;2023-04-15T11:01:51;9.00;99.90
54260;DHT22;40172;53.022;7.012;2023-04-15T11:04:53;9.10;99.90
54260;DHT22;40172;53.022;7.012;2023-04-15T11:12:38;9.00;99.90
54260;DHT22;40172;53.022;7.012;2023-04-15T11:15:36;9.00;99.90
54260;DHT22;40172;53.022;7.012;2023-04-15T11:18:16;9.00;99.90
54260;DHT22;40172;53.022;7.012;2023-04-15T11:23:13;8.80;99.90
54260;DHT22;40172;53.022;7.012;2023-04-15T11:25:39;8.80;99.90
54260;DHT22;40172;53.022;7.012;2023-04-15T11:28:05;8.70;99.90
54260;DHT22;40172;53.022;7.012;2023-04-15T11:30:34;8.60;99.90
54260;DHT22;40172;53.022;7.012;2023-04-15T11:33:01;8.50;99.90
54260;DHT22;40172;53.022;7.012;2023-04-15T11:35:28;8.50;99.90
54260;DHT22;40172;53.022;7.012;2023-04-15T11:37:54;8.40;99.90
54260;DHT22;40172;53.022;7.012;2023-04-15T11:40:24;8.40;99.90
54260;DHT22;40172;53.022;7.012;2023-04-15T11:43:10;8.40;99.90
54260;DHT22;40172;53.022;7.012;2023-04-15T11:45:37;8.40;99.90
54260;DHT22;40172;53.022;7.012;2023-04-15T11:48:10;8.40;99.90
54260;DHT22;40172;53.022;7.012;2023-04-15T11:50:37;8.30;99.90
54260;DHT22;40172;53.022;7.012;2023-04-15T11:53:10;8.70;99.90
54260;DHT22;40172;53.022;7.012;2023-04-15T11:55:49;8.40;99.90
54260;DHT22;40172;53.022;7.012;2023-04-15T11:58:17;8.30;99.90
54260;DHT22;40172;53.022;7.012;2023-04-15T12:03:20;8.40;99.90
54260;DHT22;40172;53.022;7.012;2023-04-15T12:08:48;8.40;99.90
54260;DHT22;40172;53.022;7.012;2023-04-15T12:11:26;9.30;99.90
54260;DHT22;40172;53.022;7.012;2023-04-15T12:14:02;8.30;99.90
54260;DHT22;40172;53.022;7.012;2023-04-15T12:16:28;8.30;99.90
54260;DHT22;40172;53.022;7.012;2023-04-15T12:18:56;8.20;99.90
54260;DHT22;40172;53.022;7.012;2023-04-15T12:21:25;8.20;99.90
54260;DHT22;40172;53.022;7.012;2023-04-15T12:23:52;8.40;99.90
54260;DHT22;40172;53.022;7.012;2023-04-15T12:26:25;8.30;99.90
54260;DHT22;40172;53.022;7.012;2023-04-15T12:28:54;8.30;99.90
54260;DHT22;40172;53.022;7.012;2023-04-15T12:31:21;8.30;99.90
54260;DHT22;40172;53.022;7.012;2023-04-15T12:33:48;8.20;99.90
54260;DHT22;40172;53.022;7.012;2023-04-15T12:36:14;8.20;99.90
54260;DHT22;40172;53.022;7.012;2023-04-15T12:38:41;8.10;99.90
54260;DHT22;40172;53.022;7.012;2023-04-15T12:41:06;8.10;99.90
54260;DHT22;40172;53.022;7.012;2023-04-15T12:43:32;8.10;99.90
54260;DHT22;40172;53.022;7.012;2023-04-15T12:45:57;8.10;99.90
54260;DHT22;40172;53.022;7.012;2023-04-15T12:48:23;8.10;99.90
54260;DHT22;40172;53.022;7.012;2023-04-15T12:50:48;8.00;99.90
54260;DHT22;40172;53.022;7.012;2023-04-15T12:53:14;8.00;99.90
54260;DHT22;40172;53.022;7.012;2023-04-15T12:55:40;8.00;99.90
54260;DHT22;40172;53.022;7.012;2023-04-15T12:58:06;8.00;99.90
54260;DHT22;40172;53.022;7.012;2023-04-15T13:00:34;8.50;99.90
54260;DHT22;40172;53.022;7.012;2023-04-15T13:02:59;8.00;99.90
54260;DHT22;40172;53.022;7.012;2023-04-15T13:05:25;8.00;99.90
54260;DHT22;40172;53.022;7.012;2023-04-15T13:07:51;8.00;99.90
54260;DHT22;40172;53.022;7.012;2023-04-15T13:10:17;8.00;99.90
54260;DHT22;40172;53.022;7.012;2023-04-15T13:12:42;7.90;99.90
54260;DHT22;40172;53.022;7.012;2023-04-15T13:15:08;7.90;99.90
54260;DHT22;40172;53.022;7.012;2023-04-15T13:17:35;7.90;99.90
54260;DHT22;40172;53.022;7.012;2023-04-15T13:20:01;7.90;99.90
54260;DHT22;40172;53.022;7.012;2023-04-15T13:22:26;7.90;99.90
54260;DHT22;40172;53.022;7.012;2023-04-15T13:24:52;7.90;99.90
54260;DHT22;40172;53.022;7.012;2023-04-15T13:27:17;7.90;99.90
54260;DHT22;40172;53.022;7.012;2023-04-15T13:29:43;7.90;99.90
54260;DHT22;40172;53.022;7.012;2023-04-15T13:32:09;7.90;99.90
54260;DHT22;40172;53.022;7.012;2023-04-15T13:34:34;7.90;99.90
54260;DHT22;40172;53.022;7.012;2023-04-15T13:37:06;7.90;99.90
54260;DHT22;40172;53.022;7.012;2023-04-15T13:39:32;7.90;99.90
54260;DHT22;40172;53.022;7.012;2023-04-15T13:41:57;7.90;99.90
54260;DHT22;40172;53.022;7.012;2023-04-15T13:44:23;7.80;99.90
54260;DHT22;40172;53.022;7.012;2023-04-15T13:46:48;7.80;99.90
54260;DHT22;40172;53.022;7.012;2023-04-15T13:49:14;7.80;99.90
54260;DHT22;40172;53.022;7.012;2023-04-15T13:51:40;7.80;99.90
54260;DHT22;40172;53.022;7.012;2023-04-15T13:54:06;7.80;99.90
54260;DHT22;40172;53.022;7.012;2023-04-15T13:56:32;7.80;99.90
54260;DHT22;40172;53.022;7.012;2023-04-15T13:58:57;7.80;99.90
54260;DHT22;40172;53.022;7.012;2023-04-15T14:01:26;7.80;99.90
54260;DHT22;40172;53.022;7.012;2023-04-15T14:03:52;7.80;99.90
54260;DHT22;40172;53.022;7.012;2023-04-15T14:06:18;7.90;99.90
54260;DHT22;40172;53.022;7.012;2023-04-15T14:08:43;7.80;99.90
54260;DHT22;40172;53.022;7.012;2023-04-15T14:11:10;7.80;99.90
54260;DHT22;40172;53.022;7.012;2023-04-15T14:13:36;7.90;99.90
54260;DHT22;40172;53.022;7.012;2023-04-15T14:16:02;7.80;99.90
54260;DHT22;40172;53.022;7.012;2023-04-15T14:18:28;7.80;99.90
54260;DHT22;40172;53.022;7.012;2023-04-15T14:20:55;7.90;99.90
54260;DHT22;40172;53.022;7.012;2023-04-15T14:23:21;7.80;99.90
54260;DHT22;40172;53.022;7.012;2023-04-15T14:25:46;7.80;99.90
54260;DHT22;40172;53.022;7.012;2023-04-15T14:28:12;7.80;99.90
54260;DHT22;40172;53.022;7.012;2023-04-15T14:30:38;7.80;99.90
54260;DHT22;40172;53.022;7.012;2023-04-15T14:33:03;7.80;99.90
54260;DHT22;40172;53.022;7.012;2023-04-15T14:35:29;7.70;99.90
54260;DHT22;40172;53.022;7.012;2023-04-15T14:37:55;7.70;99.90
54260;DHT22;40172;53.022;7.012;2023-04-15T14:40:21;7.80;99.90
54260;DHT22;40172;53.022;7.012;2023-04-15T14:42:47;7.80;99.90
54260;DHT22;40172;53.022;7.012;2023-04-15T14:45:12;7.80;99.90
54260;DHT22;40172;53.022;7.012;2023-04-15T14:47:38;7.80;99.90
54260;DHT22;40172;53.022;7.012;2023-04-15T14:50:04;7.80;99.90
54260;DHT22;40172;53.022;7.012;2023-04-15T14:52:30;7.80;99.90
54260;DHT22;40172;53.022;7.012;2023-04-15T14:55:11;7.80;99.90
54260;DHT22;40172;53.022;7.012;2023-04-15T14:57:38;7.80;99.90
54260;DHT22;40172;53.022;7.012;2023-04-15T15:00:05;7.70;99.90
54260;DHT22;40172;53.022;7.012;2023-04-15T15:02:32;7.80;99.90
54260;DHT22;40172;53.022;7.012;2023-04-15T15:04:59;7.80;99.90
54260;DHT22;40172;53.022;7.012;2023-04-15T15:07:25;7.80;99.90
54260;DHT22;40172;53.022;7.012;2023-04-15T15:09:51;7.70;99.90
54260;DHT22;40172;53.022;7.012;2023-04-15T15:12:17;7.80;99.90
54260;DHT22;40172;53.022;7.012;2023-04-15T15:14:42;7.80;99.90
54260;DHT22;40172;53.022;7.012;2023-04-15T15:17:08;7.70;99.90
54260;DHT22;40172;53.022;7.012;2023-04-15T15:19:34;7.80;99.90
54260;DHT22;40172;53.022;7.012;2023-04-15T15:22:00;7.70;99.90
54260;DHT22;40172;53.022;7.012;2023-04-15T15:24:26;7.80;99.90
54260;DHT22;40172;53.022;7.012;2023-04-15T15:26:51;7.80;99.90
54260;DHT22;40172;53.022;7.012;2023-04-15T15:29:17;7.80;99.90
54260;DHT22;40172;53.022;7.012;2023-04-15T15:31:42;7.80;99.90
54260;DHT22;40172;53.022;7.012;2023-04-15T15:34:09;7.80;99.90
54260;DHT22;40172;53.022;7.012;2023-04-15T15:36:35;7.90;99.90
54260;DHT22;40172;53.022;7.012;2023-04-15T15:39:00;7.80;99.90
54260;DHT22;40172;53.022;7.012;2023-04-15T15:41:26;7.90;99.90
54260;DHT22;40172;53.022;7.012;2023-04-15T15:43:52;7.80;99.90
54260;DHT22;40172;53.022;7.012;2023-04-15T15:46:18;7.80;99.90
54260;DHT22;40172;53.022;7.012;2023-04-15T15:48:44;7.80;99.90
54260;DHT22;40172;53.022;7.012;2023-04-15T15:51:09;7.80;99.90
54260;DHT22;40172;53.022;7.012;2023-04-15T15:53:35;7.90;99.90
54260;DHT22;40172;53.022;7.012;2023-04-15T15:56:01;7.90;99.90
54260;DHT22;40172;53.022;7.012;2023-04-15T15:58:29;7.80;99.90